Junipero — WDI1559 — position and weather

sailwx.info

Track history (hours):
 
Tides and Currents Weather Stations Pressure Air Temp Water Temp Dewpoint Dewpoint Depression Visibility Wind Speed Wind Dir Waves Ship Positions

Junipero

Last reported at 2017-Sep-28 13:58 UTC. Time now 2017-Oct-23 08:25 UTC.
Position N 38°56' W 090°20'.
Warning: this ship's position is 24 days out of date.

Length 14 m.

Type: Pleasure craft. MMSI: 367710220.

Date/timePositionNaut miles runAvg speedWind from/ knotsBaromVisibWave heightAir tempDewpointWater temp
2017-Sep-28 13:58N 38°56' W 090°20'4 8.7
2017-Sep-28 13:30N 38°58' W 090°25'1 0.1
2017-Sep-27 21:29N 38°58' W 090°26'2 3.4
2017-Sep-27 21:00N 38°57' W 090°28'1 1.1
2017-Sep-27 19:52N 38°56' W 090°29'0 0.0
2017-Sep-26 12:43N 38°56' W 090°29'1 5.5
2017-Sep-26 12:30N 38°57' W 090°28'2 3.2
2017-Sep-26 11:58N 38°58' W 090°26'0 0.0
2017-Sep-26 00:05N 38°58' W 090°26'0 0.0
2017-Sep-25 23:59N 38°58' W 090°26'0 0.0
2017-Sep-25 23:29N 38°58' W 090°26'0 0.0
2017-Sep-25 22:59N 38°58' W 090°26'0 0.0
2017-Sep-25 22:29N 38°58' W 090°26'1 1.3
2017-Sep-25 22:00N 38°57' W 090°27'2 2.1
2017-Sep-25 20:58N 38°56' W 090°29'0 0.0
2017-Sep-25 20:12N 38°56' W 090°29'0 0.3
2017-Sep-25 19:37N 38°56' W 090°28'0 0.0
2017-Sep-25 19:19N 38°56' W 090°28'0 0.0
2017-Sep-25 18:49N 38°56' W 090°28'0 0.0
2017-Sep-25 14:55N 38°56' W 090°28'0 0.3
2017-Sep-25 13:47N 38°56' W 090°29'2 6.8
2017-Sep-25 13:30N 38°57' W 090°27'1 0.7
2017-Sep-25 12:37N 38°58' W 090°27'0 0.0
2017-Sep-23 19:32N 38°58' W 090°27'  
2017-Sep-20 01:31N 38°58' W 090°26'0 0.0
2017-Sep-20 01:28N 38°58' W 090°26'0 0.0
2017-Sep-20 00:58N 38°58' W 090°26'0 0.0
2017-Sep-20 00:28N 38°58' W 090°26'0 0.0
2017-Sep-19 23:58N 38°58' W 090°26'0 0.0
2017-Sep-19 23:28N 38°58' W 090°26'0 0.0
2017-Sep-19 22:58N 38°58' W 090°26'0 0.0
2017-Sep-19 22:28N 38°58' W 090°26'0 0.0
2017-Sep-19 21:58N 38°58' W 090°26'2 4.4
2017-Sep-19 21:30N 38°58' W 090°29'  
Track history (hours):
 
Tides and Currents Weather Stations Pressure Air Temp Water Temp Dewpoint Dewpoint Depression Visibility Wind Speed Wind Dir Waves Ship Positions

Junipero

Last reported at 2017-Sep-28 13:58 UTC. Time now 2017-Oct-23 08:25 UTC.
Position N 38°56' W 090°20'.
Warning: this ship's position is 24 days out of date.

Length 14 m.

Type: Pleasure craft. MMSI: 367710220.

Date/timePositionNaut miles runAvg speedWind from/ knotsBaromVisibWave heightAir tempDewpointWater temp
2017-Sep-28 13:58N 38°56' W 090°20'4 8.7
2017-Sep-28 13:30N 38°58' W 090°25'1 0.1
2017-Sep-27 21:29N 38°58' W 090°26'2 3.4
2017-Sep-27 21:00N 38°57' W 090°28'1 1.1
2017-Sep-27 19:52N 38°56' W 090°29'0 0.0
2017-Sep-26 12:43N 38°56' W 090°29'1 5.5
2017-Sep-26 12:30N 38°57' W 090°28'2 3.2
2017-Sep-26 11:58N 38°58' W 090°26'0 0.0
2017-Sep-26 00:05N 38°58' W 090°26'0 0.0
2017-Sep-25 23:59N 38°58' W 090°26'0 0.0
2017-Sep-25 23:29N 38°58' W 090°26'0 0.0
2017-Sep-25 22:59N 38°58' W 090°26'0 0.0
2017-Sep-25 22:29N 38°58' W 090°26'1 1.3
2017-Sep-25 22:00N 38°57' W 090°27'2 2.1
2017-Sep-25 20:58N 38°56' W 090°29'0 0.0
2017-Sep-25 20:12N 38°56' W 090°29'0 0.3
2017-Sep-25 19:37N 38°56' W 090°28'0 0.0
2017-Sep-25 19:19N 38°56' W 090°28'0 0.0
2017-Sep-25 18:49N 38°56' W 090°28'0 0.0
2017-Sep-25 14:55N 38°56' W 090°28'0 0.3
2017-Sep-25 13:47N 38°56' W 090°29'2 6.8
2017-Sep-25 13:30N 38°57' W 090°27'1 0.7
2017-Sep-25 12:37N 38°58' W 090°27'0 0.0
2017-Sep-23 19:32N 38°58' W 090°27'  
2017-Sep-20 01:31N 38°58' W 090°26'0 0.0
2017-Sep-20 01:28N 38°58' W 090°26'0 0.0
2017-Sep-20 00:58N 38°58' W 090°26'0 0.0
2017-Sep-20 00:28N 38°58' W 090°26'0 0.0
2017-Sep-19 23:58N 38°58' W 090°26'0 0.0
2017-Sep-19 23:28N 38°58' W 090°26'0 0.0
2017-Sep-19 22:58N 38°58' W 090°26'0 0.0
2017-Sep-19 22:28N 38°58' W 090°26'0 0.0
2017-Sep-19 21:58N 38°58' W 090°26'2 4.4
2017-Sep-19 21:30N 38°58' W 090°29'  

Dump ship's entire track history